sensor_id;sensor_type;location;lat;lon;timestamp;pressure;altitude;pressure_sealevel;temperature;humidity
62849;BME280;48941;49.516;8.286;2023-03-31T00:00:50;99660.66;;;12.06;82.32
62849;BME280;48941;49.516;8.286;2023-03-31T00:03:19;99658.97;;;12.05;81.70
62849;BME280;48941;49.516;8.286;2023-03-31T00:05:55;99658.16;;;12.04;81.95
62849;BME280;48941;49.516;8.286;2023-03-31T00:08:24;99660.13;;;12.02;81.67
62849;BME280;48941;49.516;8.286;2023-03-31T00:10:58;99655.31;;;12.06;81.34
62849;BME280;48941;49.516;8.286;2023-03-31T00:13:27;99649.00;;;12.07;81.31
62849;BME280;48941;49.516;8.286;2023-03-31T00:15:56;99642.81;;;12.06;81.29
62849;BME280;48941;49.516;8.286;2023-03-31T00:18:24;99642.97;;;12.05;81.27
62849;BME280;48941;49.516;8.286;2023-03-31T00:20:52;99633.13;;;12.05;81.22
62849;BME280;48941;49.516;8.286;2023-03-31T00:23:25;99631.00;;;12.09;81.25
62849;BME280;48941;49.516;8.286;2023-03-31T00:25:54;99625.66;;;12.09;80.92
62849;BME280;48941;49.516;8.286;2023-03-31T00:28:22;99628.19;;;12.10;81.24
62849;BME280;48941;49.516;8.286;2023-03-31T00:30:49;99619.50;;;12.08;81.53
62849;BME280;48941;49.516;8.286;2023-03-31T00:33:18;99625.81;;;12.07;81.22
62849;BME280;48941;49.516;8.286;2023-03-31T00:35:50;99620.53;;;12.15;81.21
62849;BME280;48941;49.516;8.286;2023-03-31T00:38:18;99616.13;;;12.06;81.57
62849;BME280;48941;49.516;8.286;2023-03-31T00:40:48;99616.56;;;12.02;81.53
62849;BME280;48941;49.516;8.286;2023-03-31T00:43:30;99605.19;;;12.00;81.69
62849;BME280;48941;49.516;8.286;2023-03-31T00:46:11;99588.81;;;11.94;81.70
62849;BME280;48941;49.516;8.286;2023-03-31T00:48:45;99590.94;;;11.91;82.27
62849;BME280;48941;49.516;8.286;2023-03-31T00:51:14;99583.91;;;11.90;81.71
62849;BME280;48941;49.516;8.286;2023-03-31T00:53:42;99580.28;;;11.91;82.01
62849;BME280;48941;49.516;8.286;2023-03-31T00:56:13;99578.59;;;11.90;81.42
62849;BME280;48941;49.516;8.286;2023-03-31T00:58:43;99575.91;;;11.90;80.69
62849;BME280;48941;49.516;8.286;2023-03-31T01:01:16;99573.78;;;11.93;79.96
62849;BME280;48941;49.516;8.286;2023-03-31T01:03:45;99561.97;;;11.96;78.72
62849;BME280;48941;49.516;8.286;2023-03-31T01:06:15;99555.19;;;12.02;78.40
62849;BME280;48941;49.516;8.286;2023-03-31T01:08:46;99549.41;;;12.06;77.64
62849;BME280;48941;49.516;8.286;2023-03-31T01:11:19;99548.25;;;12.09;77.58
62849;BME280;48941;49.516;8.286;2023-03-31T01:13:50;99547.78;;;12.13;77.04
62849;BME280;48941;49.516;8.286;2023-03-31T01:16:21;99548.47;;;12.15;76.75
62849;BME280;48941;49.516;8.286;2023-03-31T01:18:49;99541.28;;;12.16;77.07
62849;BME280;48941;49.516;8.286;2023-03-31T01:27:58;99526.97;;;12.17;76.72
62849;BME280;48941;49.516;8.286;2023-03-31T01:31:06;99531.47;;;12.17;76.76
62849;BME280;48941;49.516;8.286;2023-03-31T01:37:01;99531.16;;;12.20;76.22
62849;BME280;48941;49.516;8.286;2023-03-31T01:40:12;99522.16;;;12.21;75.69
62849;BME280;48941;49.516;8.286;2023-03-31T01:42:48;99521.16;;;12.22;75.04
62849;BME280;48941;49.516;8.286;2023-03-31T01:45:26;99510.78;;;12.37;73.51
62849;BME280;48941;49.516;8.286;2023-03-31T01:48:01;99514.94;;;12.39;73.11
62849;BME280;48941;49.516;8.286;2023-03-31T01:50:35;99500.63;;;12.40;72.90
62849;BME280;48941;49.516;8.286;2023-03-31T01:53:10;99494.66;;;12.46;72.44
62849;BME280;48941;49.516;8.286;2023-03-31T01:55:47;99497.00;;;12.49;71.25
62849;BME280;48941;49.516;8.286;2023-03-31T01:58:19;99492.47;;;12.50;71.60
62849;BME280;48941;49.516;8.286;2023-03-31T02:00:53;99485.63;;;12.47;72.59
62849;BME280;48941;49.516;8.286;2023-03-31T02:03:27;99493.63;;;12.47;72.54
62849;BME280;48941;49.516;8.286;2023-03-31T02:06:04;99487.63;;;12.45;72.88
62849;BME280;48941;49.516;8.286;2023-03-31T02:08:37;99479.81;;;12.52;72.29
62849;BME280;48941;49.516;8.286;2023-03-31T02:11:08;99481.28;;;12.46;72.50
62849;BME280;48941;49.516;8.286;2023-03-31T02:13:39;99475.97;;;12.46;73.13
62849;BME280;48941;49.516;8.286;2023-03-31T02:16:12;99476.75;;;12.39;73.51
62849;BME280;48941;49.516;8.286;2023-03-31T02:18:46;99470.72;;;12.37;74.23
62849;BME280;48941;49.516;8.286;2023-03-31T02:21:15;99456.97;;;12.31;74.72
62849;BME280;48941;49.516;8.286;2023-03-31T02:23:44;99446.63;;;12.28;74.91
62849;BME280;48941;49.516;8.286;2023-03-31T02:26:19;99445.63;;;12.29;73.95
62849;BME280;48941;49.516;8.286;2023-03-31T02:28:48;99444.25;;;12.25;74.26
62849;BME280;48941;49.516;8.286;2023-03-31T02:31:24;99438.88;;;12.17;74.32
62849;BME280;48941;49.516;8.286;2023-03-31T02:33:54;99445.66;;;12.11;75.39
62849;BME280;48941;49.516;8.286;2023-03-31T02:36:22;99443.31;;;12.08;75.75
62849;BME280;48941;49.516;8.286;2023-03-31T02:38:53;99435.78;;;12.04;76.66
62849;BME280;48941;49.516;8.286;2023-03-31T02:41:24;99425.41;;;12.01;76.70
62849;BME280;48941;49.516;8.286;2023-03-31T02:43:52;99414.06;;;11.99;77.12
62849;BME280;48941;49.516;8.286;2023-03-31T02:46:20;99405.38;;;11.97;77.42
62849;BME280;48941;49.516;8.286;2023-03-31T02:48:50;99407.19;;;11.96;77.13
62849;BME280;48941;49.516;8.286;2023-03-31T02:51:52;99388.69;;;11.94;77.31
62849;BME280;48941;49.516;8.286;2023-03-31T02:54:36;99374.66;;;11.92;77.46
62849;BME280;48941;49.516;8.286;2023-03-31T02:57:30;99367.78;;;11.90;78.00
62849;BME280;48941;49.516;8.286;2023-03-31T03:00:07;99366.13;;;11.89;77.82
62849;BME280;48941;49.516;8.286;2023-03-31T03:02:44;99357.25;;;11.88;78.44
62849;BME280;48941;49.516;8.286;2023-03-31T03:05:24;99353.06;;;11.86;78.35
62849;BME280;48941;49.516;8.286;2023-03-31T03:07:57;99339.91;;;11.84;78.24
62849;BME280;48941;49.516;8.286;2023-03-31T03:10:39;99341.72;;;11.84;77.82
62849;BME280;48941;49.516;8.286;2023-03-31T03:13:17;99336.56;;;11.82;78.14
62849;BME280;48941;49.516;8.286;2023-03-31T03:15:51;99320.69;;;11.81;78.44
62849;BME280;48941;49.516;8.286;2023-03-31T03:18:22;99324.03;;;11.83;78.28
62849;BME280;48941;49.516;8.286;2023-03-31T03:20:50;99295.81;;;11.80;77.92
62849;BME280;48941;49.516;8.286;2023-03-31T03:23:18;99279.31;;;11.76;78.23
62849;BME280;48941;49.516;8.286;2023-03-31T03:25:46;99272.28;;;11.75;78.44
62849;BME280;48941;49.516;8.286;2023-03-31T03:28:15;99263.63;;;11.73;78.38
62849;BME280;48941;49.516;8.286;2023-03-31T03:30:42;99264.44;;;11.74;78.41
62849;BME280;48941;49.516;8.286;2023-03-31T03:33:11;99248.91;;;11.69;78.60
62849;BME280;48941;49.516;8.286;2023-03-31T03:35:42;99246.59;;;11.66;78.78
62849;BME280;48941;49.516;8.286;2023-03-31T03:38:10;99233.94;;;11.68;78.81
62849;BME280;48941;49.516;8.286;2023-03-31T03:40:38;99229.91;;;11.64;79.02
62849;BME280;48941;49.516;8.286;2023-03-31T03:43:06;99218.53;;;11.62;79.53
62849;BME280;48941;49.516;8.286;2023-03-31T03:45:35;99208.03;;;11.61;80.25
62849;BME280;48941;49.516;8.286;2023-03-31T03:48:02;99189.69;;;11.57;80.50
62849;BME280;48941;49.516;8.286;2023-03-31T03:50:30;99189.16;;;11.54;81.03
62849;BME280;48941;49.516;8.286;2023-03-31T03:53:01;99182.31;;;11.51;81.37
62849;BME280;48941;49.516;8.286;2023-03-31T03:55:29;99197.63;;;11.49;82.18
62849;BME280;48941;49.516;8.286;2023-03-31T03:57:57;99216.78;;;11.45;82.41
62849;BME280;48941;49.516;8.286;2023-03-31T04:00:25;99224.94;;;11.43;82.58
62849;BME280;48941;49.516;8.286;2023-03-31T04:02:54;99225.22;;;11.40;82.80
62849;BME280;48941;49.516;8.286;2023-03-31T04:05:22;99214.75;;;11.39;83.57
62849;BME280;48941;49.516;8.286;2023-03-31T04:07:50;99213.75;;;11.40;83.58
62849;BME280;48941;49.516;8.286;2023-03-31T04:10:18;99212.09;;;11.39;84.27
62849;BME280;48941;49.516;8.286;2023-03-31T04:12:45;99210.72;;;11.34;84.51
62849;BME280;48941;49.516;8.286;2023-03-31T04:15:13;99197.53;;;11.33;84.76
62849;BME280;48941;49.516;8.286;2023-03-31T04:17:41;99175.53;;;11.31;84.38
62849;BME280;48941;49.516;8.286;2023-03-31T04:20:17;99178.50;;;11.28;84.59
62849;BME280;48941;49.516;8.286;2023-03-31T04:22:45;99170.69;;;11.26;84.85
62849;BME280;48941;49.516;8.286;2023-03-31T04:25:16;99174.34;;;11.25;85.13
62849;BME280;48941;49.516;8.286;2023-03-31T04:27:45;99171.00;;;11.23;85.00
62849;BME280;48941;49.516;8.286;2023-03-31T04:30:16;99174.50;;;11.24;85.02
62849;BME280;48941;49.516;8.286;2023-03-31T04:32:49;99177.47;;;11.21;85.31
62849;BME280;48941;49.516;8.286;2023-03-31T04:35:19;99174.97;;;11.19;85.62
62849;BME280;48941;49.516;8.286;2023-03-31T04:37:47;99171.47;;;11.19;85.97
62849;BME280;48941;49.516;8.286;2023-03-31T04:40:15;99165.28;;;11.18;86.49
62849;BME280;48941;49.516;8.286;2023-03-31T04:42:43;99170.94;;;11.15;86.66
62849;BME280;48941;49.516;8.286;2023-03-31T04:45:11;99161.25;;;11.14;87.51
62849;BME280;48941;49.516;8.286;2023-03-31T04:47:40;99170.41;;;11.11;87.73
62849;BME280;48941;49.516;8.286;2023-03-31T04:50:09;99159.91;;;11.10;87.71
62849;BME280;48941;49.516;8.286;2023-03-31T04:52:45;99154.91;;;11.07;88.10
62849;BME280;48941;49.516;8.286;2023-03-31T04:55:12;99157.25;;;11.10;87.35
62849;BME280;48941;49.516;8.286;2023-03-31T04:57:40;99159.91;;;11.10;87.45
62849;BME280;48941;49.516;8.286;2023-03-31T05:00:09;99160.38;;;11.05;87.85
62849;BME280;48941;49.516;8.286;2023-03-31T05:02:37;99154.53;;;11.02;88.84
62849;BME280;48941;49.516;8.286;2023-03-31T05:05:05;99162.84;;;10.99;89.23
62849;BME280;48941;49.516;8.286;2023-03-31T05:07:33;99150.19;;;11.01;89.04
62849;BME280;48941;49.516;8.286;2023-03-31T05:10:02;99140.84;;;10.96;89.02
62849;BME280;48941;49.516;8.286;2023-03-31T05:12:33;99146.53;;;11.02;88.92
62849;BME280;48941;49.516;8.286;2023-03-31T05:15:01;99135.00;;;10.93;89.69
62849;BME280;48941;49.516;8.286;2023-03-31T05:17:30;99128.47;;;10.87;90.81
62849;BME280;48941;49.516;8.286;2023-03-31T05:19:58;99129.91;;;10.82;91.83
62849;BME280;48941;49.516;8.286;2023-03-31T05:22:26;99115.91;;;10.80;92.35
62849;BME280;48941;49.516;8.286;2023-03-31T05:24:54;99110.06;;;10.76;93.12
62849;BME280;48941;49.516;8.286;2023-03-31T05:27:23;99102.00;;;10.68;93.95
62849;BME280;48941;49.516;8.286;2023-03-31T05:29:51;99091.34;;;10.68;94.11
62849;BME280;48941;49.516;8.286;2023-03-31T05:32:19;99095.66;;;10.61;94.91
62849;BME280;48941;49.516;8.286;2023-03-31T05:34:46;99086.44;;;10.55;95.08
62849;BME280;48941;49.516;8.286;2023-03-31T05:37:17;99079.63;;;10.52;95.73
62849;BME280;48941;49.516;8.286;2023-03-31T05:39:46;99081.06;;;10.47;96.68
62849;BME280;48941;49.516;8.286;2023-03-31T05:42:14;99077.53;;;10.46;96.88
62849;BME280;48941;49.516;8.286;2023-03-31T05:44:43;99080.00;;;10.40;97.43
62849;BME280;48941;49.516;8.286;2023-03-31T05:47:13;99073.97;;;10.38;98.05
62849;BME280;48941;49.516;8.286;2023-03-31T05:49:40;99072.34;;;10.36;98.96
62849;BME280;48941;49.516;8.286;2023-03-31T05:52:09;99062.28;;;10.30;100.00
62849;BME280;48941;49.516;8.286;2023-03-31T05:54:37;99022.50;;;10.29;100.00
62849;BME280;48941;49.516;8.286;2023-03-31T05:57:05;99012.47;;;10.23;100.00
62849;BME280;48941;49.516;8.286;2023-03-31T05:59:33;98997.63;;;10.20;100.00
62849;BME280;48941;49.516;8.286;2023-03-31T06:02:03;99000.47;;;10.19;100.00
62849;BME280;48941;49.516;8.286;2023-03-31T06:04:31;98998.50;;;10.21;100.00
62849;BME280;48941;49.516;8.286;2023-03-31T06:06:59;98999.09;;;10.14;100.00
62849;BME280;48941;49.516;8.286;2023-03-31T06:09:26;98998.72;;;10.09;100.00
62849;BME280;48941;49.516;8.286;2023-03-31T06:11:54;98981.41;;;10.05;100.00
62849;BME280;48941;49.516;8.286;2023-03-31T06:14:22;98978.06;;;10.03;100.00
62849;BME280;48941;49.516;8.286;2023-03-31T06:16:50;98971.72;;;10.04;100.00
62849;BME280;48941;49.516;8.286;2023-03-31T06:19:19;98964.75;;;10.03;100.00
62849;BME280;48941;49.516;8.286;2023-03-31T06:21:47;98949.63;;;10.04;100.00
62849;BME280;48941;49.516;8.286;2023-03-31T06:24:15;98958.44;;;10.04;100.00
62849;BME280;48941;49.516;8.286;2023-03-31T06:26:42;98948.47;;;10.06;100.00
62849;BME280;48941;49.516;8.286;2023-03-31T06:29:10;98965.28;;;10.07;100.00
62849;BME280;48941;49.516;8.286;2023-03-31T06:31:38;98969.59;;;10.08;100.00
62849;BME280;48941;49.516;8.286;2023-03-31T06:34:06;98968.78;;;10.07;100.00
62849;BME280;48941;49.516;8.286;2023-03-31T06:36:35;98976.13;;;10.13;100.00
62849;BME280;48941;49.516;8.286;2023-03-31T06:39:03;98972.50;;;10.14;100.00
62849;BME280;48941;49.516;8.286;2023-03-31T06:41:30;98961.91;;;10.23;100.00
62849;BME280;48941;49.516;8.286;2023-03-31T06:43:58;98959.25;;;10.23;100.00
62849;BME280;48941;49.516;8.286;2023-03-31T06:46:26;98963.22;;;10.19;100.00
62849;BME280;48941;49.516;8.286;2023-03-31T06:48:54;98954.91;;;10.22;100.00
62849;BME280;48941;49.516;8.286;2023-03-31T06:51:21;98942.44;;;10.22;100.00
62849;BME280;48941;49.516;8.286;2023-03-31T06:53:51;98948.91;;;10.20;100.00
62849;BME280;48941;49.516;8.286;2023-03-31T06:56:18;98948.28;;;10.26;100.00
62849;BME280;48941;49.516;8.286;2023-03-31T06:58:47;98947.97;;;10.29;100.00
62849;BME280;48941;49.516;8.286;2023-03-31T07:01:15;98953.59;;;10.26;100.00
62849;BME280;48941;49.516;8.286;2023-03-31T07:03:43;98960.44;;;10.28;100.00
62849;BME280;48941;49.516;8.286;2023-03-31T07:06:10;98951.47;;;10.29;100.00
62849;BME280;48941;49.516;8.286;2023-03-31T07:08:38;98941.75;;;10.38;100.00
62849;BME280;48941;49.516;8.286;2023-03-31T07:11:07;98937.56;;;10.35;100.00
62849;BME280;48941;49.516;8.286;2023-03-31T07:13:35;98938.91;;;10.40;100.00
62849;BME280;48941;49.516;8.286;2023-03-31T07:16:04;98951.06;;;10.42;100.00
62849;BME280;48941;49.516;8.286;2023-03-31T07:18:33;98950.25;;;10.42;100.00
62849;BME280;48941;49.516;8.286;2023-03-31T07:21:02;98941.06;;;10.36;100.00
62849;BME280;48941;49.516;8.286;2023-03-31T07:23:35;98937.72;;;10.34;100.00
62849;BME280;48941;49.516;8.286;2023-03-31T07:26:03;98945.56;;;10.35;100.00
62849;BME280;48941;49.516;8.286;2023-03-31T07:28:33;98941.91;;;10.36;100.00
62849;BME280;48941;49.516;8.286;2023-03-31T07:31:01;98942.94;;;10.44;100.00
62849;BME280;48941;49.516;8.286;2023-03-31T07:33:29;98943.31;;;10.49;100.00
62849;BME280;48941;49.516;8.286;2023-03-31T07:35:57;98944.03;;;10.59;100.00
62849;BME280;48941;49.516;8.286;2023-03-31T07:38:37;98950.44;;;10.74;100.00
62849;BME280;48941;49.516;8.286;2023-03-31T07:41:09;98943.41;;;11.08;100.00
62849;BME280;48941;49.516;8.286;2023-03-31T07:43:38;98941.47;;;11.26;100.00
62849;BME280;48941;49.516;8.286;2023-03-31T07:46:13;98943.69;;;11.55;100.00
62849;BME280;48941;49.516;8.286;2023-03-31T07:48:42;98949.19;;;11.62;100.00
62849;BME280;48941;49.516;8.286;2023-03-31T07:51:12;98943.38;;;11.67;99.70
62849;BME280;48941;49.516;8.286;2023-03-31T07:53:40;98955.53;;;11.61;99.38
62849;BME280;48941;49.516;8.286;2023-03-31T07:56:08;98949.19;;;11.62;99.18
62849;BME280;48941;49.516;8.286;2023-03-31T07:58:36;98948.84;;;11.57;99.18
62849;BME280;48941;49.516;8.286;2023-03-31T08:01:05;98955.88;;;11.66;97.97
62849;BME280;48941;49.516;8.286;2023-03-31T08:03:33;98961.00;;;11.60;98.84
62849;BME280;48941;49.516;8.286;2023-03-31T08:06:02;98979.38;;;11.63;99.76
62849;BME280;48941;49.516;8.286;2023-03-31T08:08:31;98978.69;;;11.52;100.00
62849;BME280;48941;49.516;8.286;2023-03-31T08:10:59;98966.16;;;11.45;100.00
62849;BME280;48941;49.516;8.286;2023-03-31T08:13:30;98974.81;;;11.39;100.00
62849;BME280;48941;49.516;8.286;2023-03-31T08:15:57;98971.94;;;11.24;100.00
62849;BME280;48941;49.516;8.286;2023-03-31T08:18:27;98976.75;;;11.20;100.00
62849;BME280;48941;49.516;8.286;2023-03-31T08:20:54;98963.09;;;11.15;98.91
62849;BME280;48941;49.516;8.286;2023-03-31T08:23:22;98971.72;;;11.09;97.84
62849;BME280;48941;49.516;8.286;2023-03-31T08:25:50;98965.50;;;11.00;95.58
62849;BME280;48941;49.516;8.286;2023-03-31T08:28:18;98966.38;;;11.01;96.01
62849;BME280;48941;49.516;8.286;2023-03-31T08:30:48;98955.06;;;11.07;94.14
62849;BME280;48941;49.516;8.286;2023-03-31T08:33:16;98942.56;;;11.07;94.68
62849;BME280;48941;49.516;8.286;2023-03-31T08:35:46;98941.59;;;11.08;95.35
62849;BME280;48941;49.516;8.286;2023-03-31T08:38:14;98930.94;;;11.08;96.58
62849;BME280;48941;49.516;8.286;2023-03-31T08:40:45;98943.09;;;11.11;98.00
62849;BME280;48941;49.516;8.286;2023-03-31T08:43:21;98957.41;;;11.18;100.00
62849;BME280;48941;49.516;8.286;2023-03-31T08:45:52;98940.78;;;11.24;100.00
62849;BME280;48941;49.516;8.286;2023-03-31T08:48:24;98936.31;;;11.25;100.00
62849;BME280;48941;49.516;8.286;2023-03-31T08:50:58;98934.78;;;11.22;100.00
62849;BME280;48941;49.516;8.286;2023-03-31T08:53:29;98938.94;;;11.16;100.00
62849;BME280;48941;49.516;8.286;2023-03-31T08:55:59;98937.25;;;11.15;100.00
62849;BME280;48941;49.516;8.286;2023-03-31T08:58:33;98932.44;;;11.11;100.00
62849;BME280;48941;49.516;8.286;2023-03-31T09:01:09;98940.06;;;11.06;100.00
62849;BME280;48941;49.516;8.286;2023-03-31T09:04:06;98930.56;;;11.03;100.00
62849;BME280;48941;49.516;8.286;2023-03-31T09:06:45;98959.88;;;11.03;100.00
62849;BME280;48941;49.516;8.286;2023-03-31T09:09:20;99008.47;;;10.97;100.00
62849;BME280;48941;49.516;8.286;2023-03-31T09:11:54;98998.03;;;10.77;98.16
62849;BME280;48941;49.516;8.286;2023-03-31T09:14:27;98981.00;;;10.18;96.64
62849;BME280;48941;49.516;8.286;2023-03-31T09:16:58;98996.91;;;9.92;97.05
62849;BME280;48941;49.516;8.286;2023-03-31T09:19:34;98989.63;;;9.76;99.62
62849;BME280;48941;49.516;8.286;2023-03-31T09:22:10;98992.41;;;9.56;100.00
62849;BME280;48941;49.516;8.286;2023-03-31T09:24:45;98969.88;;;9.43;100.00
62849;BME280;48941;49.516;8.286;2023-03-31T09:27:15;99004.00;;;9.37;100.00
62849;BME280;48941;49.516;8.286;2023-03-31T09:29:47;99000.81;;;9.34;100.00
62849;BME280;48941;49.516;8.286;2023-03-31T09:32:18;98990.50;;;9.31;100.00
62849;BME280;48941;49.516;8.286;2023-03-31T09:34:49;98961.69;;;9.26;100.00
62849;BME280;48941;49.516;8.286;2023-03-31T09:37:20;98952.97;;;9.34;100.00
62849;BME280;48941;49.516;8.286;2023-03-31T09:39:48;98941.53;;;9.33;100.00
62849;BME280;48941;49.516;8.286;2023-03-31T09:42:16;98928.25;;;9.33;100.00
62849;BME280;48941;49.516;8.286;2023-03-31T09:44:46;98917.47;;;9.35;100.00
62849;BME280;48941;49.516;8.286;2023-03-31T09:47:19;98903.44;;;9.43;100.00
62849;BME280;48941;49.516;8.286;2023-03-31T09:49:52;98893.47;;;9.45;100.00
62849;BME280;48941;49.516;8.286;2023-03-31T09:52:26;98894.00;;;9.48;100.00
62849;BME280;48941;49.516;8.286;2023-03-31T09:54:58;98917.00;;;9.57;100.00
62849;BME280;48941;49.516;8.286;2023-03-31T09:57:28;98926.13;;;9.73;100.00
62849;BME280;48941;49.516;8.286;2023-03-31T10:00:05;98912.53;;;9.58;100.00
62849;BME280;48941;49.516;8.286;2023-03-31T10:02:43;98929.31;;;9.59;100.00
62849;BME280;48941;49.516;8.286;2023-03-31T10:08:18;98891.84;;;9.70;100.00
62849;BME280;48941;49.516;8.286;2023-03-31T10:10:48;98882.34;;;9.85;100.00
62849;BME280;48941;49.516;8.286;2023-03-31T10:13:19;98874.28;;;9.95;100.00
62849;BME280;48941;49.516;8.286;2023-03-31T10:15:51;98881.13;;;10.06;100.00
62849;BME280;48941;49.516;8.286;2023-03-31T10:18:20;98891.81;;;10.14;100.00
62849;BME280;48941;49.516;8.286;2023-03-31T10:20:59;98873.09;;;10.24;100.00
62849;BME280;48941;49.516;8.286;2023-03-31T10:23:30;98862.25;;;10.43;100.00
62849;BME280;48941;49.516;8.286;2023-03-31T10:25:59;98857.50;;;10.55;100.00
62849;BME280;48941;49.516;8.286;2023-03-31T10:28:31;98851.41;;;10.71;100.00
62849;BME280;48941;49.516;8.286;2023-03-31T10:31:00;98847.78;;;10.88;100.00
62849;BME280;48941;49.516;8.286;2023-03-31T10:33:31;98829.47;;;11.02;100.00
62849;BME280;48941;49.516;8.286;2023-03-31T10:36:06;98826.50;;;11.13;100.00
62849;BME280;48941;49.516;8.286;2023-03-31T10:38:37;98843.53;;;11.28;100.00
62849;BME280;48941;49.516;8.286;2023-03-31T10:41:08;98837.38;;;11.44;100.00
62849;BME280;48941;49.516;8.286;2023-03-31T10:43:39;98838.19;;;11.61;100.00
62849;BME280;48941;49.516;8.286;2023-03-31T10:46:08;98831.66;;;11.80;99.30
62849;BME280;48941;49.516;8.286;2023-03-31T10:48:38;98837.31;;;12.02;92.73
62849;BME280;48941;49.516;8.286;2023-03-31T10:51:11;98833.97;;;12.08;92.89
62849;BME280;48941;49.516;8.286;2023-03-31T10:53:45;98842.44;;;12.20;93.80
62849;BME280;48941;49.516;8.286;2023-03-31T10:56:29;98868.00;;;12.22;91.83
62849;BME280;48941;49.516;8.286;2023-03-31T10:59:22;98865.63;;;12.27;92.48
62849;BME280;48941;49.516;8.286;2023-03-31T11:02:03;98856.81;;;12.19;91.72
62849;BME280;48941;49.516;8.286;2023-03-31T11:04:46;98844.53;;;11.93;91.05
62849;BME280;48941;49.516;8.286;2023-03-31T11:07:37;98825.00;;;11.68;91.04
62849;BME280;48941;49.516;8.286;2023-03-31T11:10:20;98808.22;;;11.43;89.65
62849;BME280;48941;49.516;8.286;2023-03-31T11:12:56;98823.19;;;11.19;90.50
62849;BME280;48941;49.516;8.286;2023-03-31T11:15:30;98837.47;;;11.02;94.26
62849;BME280;48941;49.516;8.286;2023-03-31T11:18:09;98834.81;;;11.02;94.49
62849;BME280;48941;49.516;8.286;2023-03-31T11:20:50;98840.81;;;11.20;92.04
62849;BME280;48941;49.516;8.286;2023-03-31T11:23:25;98829.03;;;11.39;90.73
62849;BME280;48941;49.516;8.286;2023-03-31T11:26:00;98825.03;;;11.60;92.39
62849;BME280;48941;49.516;8.286;2023-03-31T11:28:37;98815.50;;;11.73;89.87
62849;BME280;48941;49.516;8.286;2023-03-31T11:31:23;98811.66;;;12.01;89.14
62849;BME280;48941;49.516;8.286;2023-03-31T11:37:27;98803.69;;;12.40;88.23
62849;BME280;48941;49.516;8.286;2023-03-31T11:40:08;98809.25;;;12.62;88.54
62849;BME280;48941;49.516;8.286;2023-03-31T11:42:48;98819.34;;;12.83;86.86
62849;BME280;48941;49.516;8.286;2023-03-31T11:45:18;98833.63;;;12.90;85.15
62849;BME280;48941;49.516;8.286;2023-03-31T11:47:51;98837.16;;;12.90;89.39
62849;BME280;48941;49.516;8.286;2023-03-31T11:50:24;98840.97;;;12.96;88.34
62849;BME280;48941;49.516;8.286;2023-03-31T11:52:56;98845.97;;;12.99;88.73
62849;BME280;48941;49.516;8.286;2023-03-31T11:55:28;98837.44;;;12.95;86.92
62849;BME280;48941;49.516;8.286;2023-03-31T11:58:02;98838.75;;;13.00;84.69
62849;BME280;48941;49.516;8.286;2023-03-31T12:00:33;98846.78;;;13.00;nan
62849;BME280;48941;49.516;8.286;2023-03-31T12:03:08;98840.13;;;12.95;nan
62849;BME280;48941;49.516;8.286;2023-03-31T12:05:40;98830.03;;;12.83;86.58
62849;BME280;48941;49.516;8.286;2023-03-31T12:08:14;98826.53;;;12.82;88.44
62849;BME280;48941;49.516;8.286;2023-03-31T12:10:47;98824.63;;;12.91;87.38
62849;BME280;48941;49.516;8.286;2023-03-31T12:13:40;98819.34;;;13.06;84.75
62849;BME280;48941;49.516;8.286;2023-03-31T12:16:14;98802.50;;;13.28;79.85
62849;BME280;48941;49.516;8.286;2023-03-31T12:18:54;98793.78;;;13.34;79.60
62849;BME280;48941;49.516;8.286;2023-03-31T12:21:24;98786.81;;;13.48;78.69
62849;BME280;48941;49.516;8.286;2023-03-31T12:23:54;98780.75;;;13.54;76.23
62849;BME280;48941;49.516;8.286;2023-03-31T12:26:31;98790.63;;;13.54;75.66
62849;BME280;48941;49.516;8.286;2023-03-31T12:29:10;98788.13;;;13.67;74.54
62849;BME280;48941;49.516;8.286;2023-03-31T12:31:43;98784.19;;;13.78;72.39
62849;BME280;48941;49.516;8.286;2023-03-31T12:34:14;98789.72;;;13.77;72.96
62849;BME280;48941;49.516;8.286;2023-03-31T12:36:52;98791.28;;;13.86;73.99
62849;BME280;48941;49.516;8.286;2023-03-31T12:39:30;98805.44;;;13.94;72.43
62849;BME280;48941;49.516;8.286;2023-03-31T12:42:32;98797.03;;;13.83;71.17
62849;BME280;48941;49.516;8.286;2023-03-31T12:45:10;98804.63;;;13.94;71.37
62849;BME280;48941;49.516;8.286;2023-03-31T12:47:56;98800.16;;;13.86;71.01
62849;BME280;48941;49.516;8.286;2023-03-31T12:50:39;98782.72;;;14.05;69.86
62849;BME280;48941;49.516;8.286;2023-03-31T12:53:15;98783.84;;;13.96;69.17
62849;BME280;48941;49.516;8.286;2023-03-31T12:55:49;98777.94;;;14.01;68.99
62849;BME280;48941;49.516;8.286;2023-03-31T12:58:38;98778.03;;;13.92;69.04
62849;BME280;48941;49.516;8.286;2023-03-31T13:01:13;98775.78;;;13.81;72.04
62849;BME280;48941;49.516;8.286;2023-03-31T13:03:47;98765.66;;;13.77;71.40
62849;BME280;48941;49.516;8.286;2023-03-31T13:06:50;98768.78;;;13.80;71.07
62849;BME280;48941;49.516;8.286;2023-03-31T13:09:39;98761.94;;;13.78;70.71
62849;BME280;48941;49.516;8.286;2023-03-31T13:12:12;98763.06;;;13.83;69.08
62849;BME280;48941;49.516;8.286;2023-03-31T13:14:42;98760.75;;;13.95;68.12
62849;BME280;48941;49.516;8.286;2023-03-31T13:17:19;98757.34;;;13.86;67.70
62849;BME280;48941;49.516;8.286;2023-03-31T13:19:49;98761.84;;;13.86;70.18
62849;BME280;48941;49.516;8.286;2023-03-31T13:22:34;98773.66;;;13.91;68.58
62849;BME280;48941;49.516;8.286;2023-03-31T13:25:25;98769.53;;;13.89;70.16
62849;BME280;48941;49.516;8.286;2023-03-31T13:27:54;98766.19;;;13.87;71.62
62849;BME280;48941;49.516;8.286;2023-03-31T13:30:43;98767.59;;;13.83;70.39
62849;BME280;48941;49.516;8.286;2023-03-31T13:33:14;98758.81;;;13.89;70.01
62849;BME280;48941;49.516;8.286;2023-03-31T13:35:46;98759.09;;;13.79;71.17
62849;BME280;48941;49.516;8.286;2023-03-31T13:38:22;98751.88;;;13.80;71.54
62849;BME280;48941;49.516;8.286;2023-03-31T13:41:02;98749.22;;;13.80;71.02